Latest Weather Observations for St Kilda Harbour RMYS

IDV60901

Issued at 6:01 am EST Saturday 29 April 2017 (issued every 10 minutes, with the page automatically refreshed every 10 minutes)

About weather observations | Map of Melbourne area stations | Latest observations for Melbourne area | Other Formats
Station Details ID: 086220 Name: ST KILDA HARBOUR - RMYS Lat: -37.86 Lon: 144.96 Height: 6.4 m
Data from the previous 72 hours. | See also: Recent months for locations in Victoria
Date/Time
EST
Temp
°C
App
Temp
°C
Dew
Point
°C
Rel
Hum
%
Delta-T
°C
Wind Press
QNH
hPa
Press
MSL
hPa
Rain since
9am
mm
Dir  Spd
km/h
Gust
km/h
Spd
kts
Gust
kts
29/05:30am - - - - - W 13 19 7 10 - - -
29/05:00am - - - - - W 15 17 8 9 - - -
29/04:30am - - - - - W 19 28 10 15 - - -
29/04:00am - - - - - WNW 15 19 8 10 - - -
29/03:30am - - - - - NW 11 13 6 7 - - -
29/03:00am - - - - - NW 11 13 6 7 - - -
29/02:30am - - - - - WNW 15 17 8 9 - - -
29/02:00am - - - - - W 15 17 8 9 - - -
29/01:30am - - - - - WNW 15 19 8 10 - - -
29/01:00am - - - - - WNW 17 20 9 11 - - -
29/12:30am - - - - - W 19 22 10 12 - - -
29/12:00am - - - - - WNW 17 26 9 14 - - -
 
Date/Time
EST
Temp
°C
App
Temp
°C
Dew
Point
°C
Rel
Hum
%
Delta-T
°C
Wind Press
QNH
hPa
Press
MSL
hPa
Rain since
9am
mm
Dir  Spd
km/h
Gust
km/h
Spd
kts
Gust
kts
28/11:30pm - - - - - W 19 22 10 12 - - -
28/11:00pm - - - - - W 22 26 12 14 - - -
28/10:30pm - - - - - WSW 33 39 18 21 - - -
28/10:00pm - - - - - W 19 24 10 13 - - -
28/09:30pm - - - - - W 24 28 13 15 - - -
28/09:00pm - - - - - WSW 22 26 12 14 - - -
28/08:30pm - - - - - WSW 19 24 10 13 - - -
28/08:00pm - - - - - W 9 13 5 7 - - -
28/07:30pm - - - - - W 17 20 9 11 - - -
28/07:00pm - - - - - W 13 17 7 9 - - -
28/06:30pm - - - - - W 15 19 8 10 - - -
28/06:00pm - - - - - W 15 20 8 11 - - -
28/05:30pm - - - - - W 20 24 11 13 - - -
28/05:00pm - - - - - W 17 24 9 13 - - -
28/04:30pm - - - - - WSW 13 17 7 9 - - -
28/04:00pm - - - - - WSW 20 22 11 12 - - -
28/03:30pm - - - - - WSW 19 22 10 12 - - -
28/03:00pm - - - - - WSW 24 28 13 15 - - -
28/02:30pm - - - - - W 22 30 12 16 - - -
28/02:00pm - - - - - W 15 19 8 10 - - -
28/01:30pm - - - - - WSW 6 13 3 7 - - -
28/01:00pm - - - - - S 7 9 4 5 - - -
28/12:30pm - - - - - SW 11 19 6 10 - - -
28/12:00pm - - - - - W 17 22 9 12 - - -
28/11:30am - - - - - W 11 15 6 8 - - -
28/11:00am - - - - - WNW 15 20 8 11 - - -
28/10:30am - - - - - W 15 24 8 13 - - -
28/10:00am - - - - - WNW 11 15 6 8 - - -
28/09:30am - - - - - NW 13 17 7 9 - - -
28/09:00am - - - - - NNW 11 15 6 8 - - -
28/08:30am - - - - - NW 11 15 6 8 - - -
28/08:00am - - - - - NW 13 15 7 8 - - -
28/07:30am - - - - - NNW 11 15 6 8 - - -
28/07:00am - - - - - NNW 11 15 6 8 - - -
28/06:30am - - - - - NNW 11 13 6 7 - - -
28/06:00am - - - - - N 11 15 6 8 - - -
28/05:30am - - - - - NNW 9 13 5 7 - - -
28/05:00am - - - - - N 11 17 6 9 - - -
28/04:30am - - - - - NNW 9 13 5 7 - - -
28/04:00am - - - - - NNW 11 15 6 8 - - -
28/03:30am - - - - - NNW 11 17 6 9 - - -
28/03:00am - - - - - NNW 9 13 5 7 - - -
28/02:30am - - - - - NW 11 17 6 9 - - -
28/02:00am - - - - - NW 17 20 9 11 - - -
28/01:30am - - - - - NW 17 20 9 11 - - -
28/01:00am - - - - - WNW 17 22 9 12 - - -
28/12:30am - - - - - NW 15 20 8 11 - - -
28/12:00am - - - - - WNW 17 22 9 12 - - -
 
Date/Time
EST
Temp
°C
App
Temp
°C
Dew
Point
°C
Rel
Hum
%
Delta-T
°C
Wind Press
QNH
hPa
Press
MSL
hPa
Rain since
9am
mm
Dir  Spd
km/h
Gust
km/h
Spd
kts
Gust
kts
27/11:30pm - - - - - NNW 9 13 5 7 - - -
27/11:00pm - - - - - NNW 11 13 6 7 - - -
27/10:30pm - - - - - NNW 11 13 6 7 - - -
27/10:00pm - - - - - NNW 13 15 7 8 - - -
27/09:30pm - - - - - N 9 11 5 6 - - -
27/09:00pm - - - - - N 11 15 6 8 - - -
27/08:30pm - - - - - N 9 13 5 7 - - -
27/08:00pm - - - - - NNW 7 11 4 6 - - -
27/07:30pm - - - - - WNW 6 7 3 4 - - -
27/07:00pm - - - - - W 11 13 6 7 - - -
27/06:30pm - - - - - WNW 13 17 7 9 - - -
27/06:00pm - - - - - WNW 6 9 3 5 - - -
27/05:30pm - - - - - SSE 4 7 2 4 - - -
27/05:00pm - - - - - WSW 9 15 5 8 - - -
27/04:30pm - - - - - WSW 13 19 7 10 - - -
27/04:00pm - - - - - SW 17 22 9 12 - - -
27/03:30pm - - - - - SW 22 28 12 15 - - -
27/03:00pm - - - - - SW 26 33 14 18 - - -
27/02:30pm - - - - - SW 28 35 15 19 - - -
27/02:00pm - - - - - SW 24 35 13 19 - - -
27/01:30pm - - - - - WSW 20 24 11 13 - - -
27/01:00pm - - - - - SW 37 44 20 24 - - -
27/12:30pm - - - - - WSW 32 43 17 23 - - -
27/12:00pm - - - - - WSW 37 43 20 23 - - -
27/11:30am - - - - - WSW 41 46 22 25 - - -
27/11:00am - - - - - SW 33 41 18 22 - - -
27/10:30am - - - - - WSW 32 37 17 20 - - -
27/10:00am - - - - - WSW 35 43 19 23 - - -
27/09:30am - - - - - WSW 35 48 19 26 - - -
27/09:00am - - - - - SW 32 37 17 20 - - -
27/08:30am - - - - - WSW 32 43 17 23 - - -
27/08:00am - - - - - WSW 28 35 15 19 - - -
27/07:40am - - - - - WSW 33 43 18 23 - - -
27/07:30am - - - - - SW 28 37 15 20 - - -
27/07:00am - - - - - WNW 11 26 6 14 - - -
27/06:30am - - - - - WSW 22 35 12 19 - - -
27/06:00am - - - - - W 20 28 11 15 - - -
27/05:46am - - - - - WSW 28 43 15 23 - - -
27/05:30am - - - - - S 19 32 10 17 - - -
27/05:00am - - - - - SSW 28 39 15 21 - - -
27/04:30am - - - - - S 30 37 16 20 - - -
27/04:00am - - - - - S 39 46 21 25 - - -
27/03:30am - - - - - S 37 48 20 26 - - -
27/03:00am - - - - - S 41 48 22 26 - - -
27/02:30am - - - - - S 43 48 23 26 - - -
27/02:03am - - - - - SSW 28 46 15 25 - - -
27/02:00am - - - - - SSW 26 48 14 26 - - -
27/01:49am - - - - - SSW 35 48 19 26 - - -
27/01:30am - - - - - SE 26 41 14 22 - - -
27/01:25am - - - - - SSE 33 46 18 25 - - -
27/01:07am - - - - - SSW 35 48 19 26 - - -
27/01:00am - - - - - SSW 37 44 20 24 - - -
27/12:30am - - - - - SSW 32 44 17 24 - - -
27/12:00am - - - - - SW 32 48 17 26 - - -
 
Date/Time
EST
Temp
°C
App
Temp
°C
Dew
Point
°C
Rel
Hum
%
Delta-T
°C
Wind Press
QNH
hPa
Press
MSL
hPa
Rain since
9am
mm
Dir  Spd
km/h
Gust
km/h
Spd
kts
Gust
kts
26/11:30pm - - - - - WSW 26 35 14 19 - - -
26/11:00pm - - - - - SW 35 48 19 26 - - -
26/10:59pm - - - - - SW 37 48 20 26 - - -
26/10:49pm - - - - - SW 33 46 18 25 - - -
26/10:30pm - - - - - SW 39 48 21 26 - - -
26/10:28pm - - - - - SSW 39 48 21 26 - - -
26/10:05pm - - - - - SSW 37 48 20 26 - - -
26/10:00pm - - - - - SW 37 48 20 26 - - -
26/09:30pm - - - - - WSW 37 48 20 26 - - -
26/09:03pm - - - - - SW 39 48 21 26 - - -
26/09:00pm - - - - - SW 39 48 21 26 - - -
26/08:44pm - - - - - SW 39 46 21 25 - - -
26/08:30pm - - - - - WSW 41 48 22 26 - - -
26/08:24pm - - - - - SW 41 48 22 26 - - -
26/08:00pm - - - - - SW 24 48 13 26 - - -
26/07:30pm - - - - - SSW 37 48 20 26 - - -
26/07:12pm - - - - - SW 33 48 18 26 - - -
26/07:00pm - - - - - WSW 43 48 23 26 - - -
26/06:47pm - - - - - SW 41 48 22 26 - - -
26/06:30pm - - - - - SSW 35 48 19 26 - - -
26/06:00pm - - - - - SSW 24 48 13 26 - - -
26/05:30pm - - - - - SSW 39 48 21 26 - - -
26/05:27pm - - - - - SSW 39 48 21 26 - - -
26/05:00pm - - - - - SW 35 48 19 26 - - -
26/04:39pm - - - - - SW 30 48 16 26 - - -
26/04:30pm - - - - - SSW 35 48 19 26 - - -
26/04:00pm - - - - - SW 41 48 22 26 - - -
26/03:30pm - - - - - SW 13 48 7 26 - - -
26/03:00pm - - - - - SW 33 48 18 26 - - -
26/02:39pm - - - - - SSW 30 48 16 26 - - -
26/02:30pm - - - - - SSW 33 48 18 26 - - -
26/02:01pm - - - - - SSW 28 48 15 26 - - -
26/02:00pm - - - - - SSW 26 48 14 26 - - -
26/01:30pm - - - - - SSW 22 48 12 26 - - -
26/01:02pm - - - - - SSW 28 48 15 26 - - -
26/01:00pm - - - - - SSW 24 48 13 26 - - -
26/12:35pm - - - - - SSW 30 48 16 26 - - -
26/12:30pm - - - - - SSW 39 48 21 26 - - -
26/12:19pm - - - - - SSW 15 48 8 26 - - -
26/12:00pm - - - - - SSW 24 48 13 26 - - -
26/11:55am - - - - - SSW 30 48 16 26 - - -
26/11:30am - - - - - SSW 33 48 18 26 - - -
26/11:22am - - - - - S 28 48 15 26 - - -
26/11:00am - - - - - S 22 48 12 26 - - -
26/10:30am - - - - - SSW 26 48 14 26 - - -
26/10:08am - - - - - SSW 28 48 15 26 - - -
26/10:00am - - - - - SSW 24 48 13 26 - - -
26/09:30am - - - - - SSW 28 48 15 26 - - -
26/09:08am - - - - - SSW 28 48 15 26 - - -
26/09:00am - - - - - SSW 17 48 9 26 - - -
26/08:30am - - - - - SSW 19 48 10 26 - - -
26/08:00am - - - - - WSW 28 48 15 26 - - -
26/07:57am - - - - - WSW 28 48 15 26 - - -
26/07:30am - - - - - WSW 24 35 13 19 - - -
26/07:07am - - - - - SSW 30 48 16 26 - - -
26/07:02am - - - - - WSW 35 48 19 26 - - -
26/07:00am - - - - - WSW 35 48 19 26 - - -
26/06:30am - - - - - SW 24 35 13 19 - - -

Latest Capital City Observations: Canberra | Sydney | Melbourne | Brisbane | Adelaide | Perth | Hobart | Darwin

Other Formats:

Comma delimited format used in spreadsheet applications
http://www.bom.gov.au/fwo/IDV60901/IDV60901.95864.axf

JavaScript Object Notation format (JSON) in row-major order
http://www.bom.gov.au/fwo/IDV60901/IDV60901.95864.json